Etusivu
METAR-TAF:

METAR-TAF

Lentoasemat :

Havanna, Kuuba

Leveyspiiri: 22-59N, Pituuspiiri: 082-24W, korkeus merenpinnasta: 59 m

Tämänhetkinen sää

Tämä raportti tehtiin 1 tunti ja 5 minuuttia sitten, kello 07.55 UTC
tyyntä
Lämpötila 23°C
Kosteus 94%
Ilmanpaine 1014 hPa
Näkyvyys: 9000 m
Hajanaisia pilviä 3000 ft:n korkeudessa

METAR: MUHA 180755Z 00000KT 9000 SCT030 23/22 Q1014

Aika: 05:00 (09:00 UTC)

Sääennuste

Tämä raportti tehtiin 4 tuntia ja 0 minuuttia sitten, kello 05.00 UTC
Ennuste voimassa 18. päivästä klo 06 UTC - 19. päivään klo 06 UTC
Tuuli 3 kn etelästä/kaakosta
Näkyvyys: 9000 m
Hajanaisia pilviä 3000 ft:n korkeudessa
Tulossa
18. päivästä klo 14 UTC - 18. päivään klo 16 UTC
Tuuli 12 kn etelästä

TAF: MUHA 180500Z 1806/1906 15003KT 9000 SCT030 BECMG 1814/1816 18012KT

Säähavainnot ja -ennusteet yli 4000 lentoasemalta (METAR- ja TAF-raportit).

Käytössä olevat sääasemat on merkitty karttaan keltaisilla ja punaisilla pisteillä.

Aseta hiiri pisteen päälle nähdäksesi sääaseman nimen.

Klikkaa sitten nähdäksesi säähavainnot ja -ennusteet.

Kartan vaihtaminen: klikkaa mustalla rastilla varustettuja vihreitä pisteitä, niin voit zoomata sisään; viivalla varustettua vihreää pistettä, niin voit zoomata ulos tai vihreitä nuolia, niin pääset viereisille kartoille.


METAR-TAF: